Time;durP1;ratioP1;P1;durP2;ratioP2;P2;SDS_P1;SDS_P2;PMS_P1;PMS_P2;Temp;Humidity;BMP_temperature;BMP_pressure;BME280_temperature;BME280_humidity;BME280_pressure;Samples;Min_cycle;Max_cycle;Signal;HPM_P1;HPM_P2
2022/05/01 00:01:54;;;;;;;9.43;7.93;;;;;;;;;;5032029;28;20225;-76
2022/05/01 00:04:23;;;;;;;9.57;8.63;;;;;;;;;;5034308;28;20500;-76
2022/05/01 00:06:50;;;;;;;11.13;8.83;;;;;;;;;;5034417;28;20454;-76
2022/05/01 00:09:17;;;;;;;10.07;8.80;;;;;;;;;;5037060;28;20771;-76
2022/05/01 00:11:44;;;;;;;10.02;9.02;;;;;;;;;;5037924;28;20457;-76
2022/05/01 00:14:11;;;;;;;10.37;9.23;;;;;;;;;;5032283;28;20191;-76
2022/05/01 00:16:38;;;;;;;10.17;9.00;;;;;;;;;;5031937;28;20793;-76
2022/05/01 00:19:08;;;;;;;9.73;8.73;;;;;;;;;;5031978;28;20442;-76
2022/05/01 00:21:37;;;;;;;11.37;9.50;;;;;;;;;;5032466;28;20873;-76
2022/05/01 00:24:04;;;;;;;10.50;8.80;;;;;;;;;;5031391;28;20481;-76
2022/05/01 00:26:32;;;;;;;11.47;9.57;;;;;;;;;;5034016;28;20836;-76
2022/05/01 00:28:59;;;;;;;12.07;9.97;;;;;;;;;;5034197;28;20927;-76
2022/05/01 00:31:26;;;;;;;10.33;8.80;;;;;;;;;;5036257;28;20499;-76
2022/05/01 00:36:34;;;;;;;9.50;8.50;;;;;;;;;;5024013;28;20435;-76
2022/05/01 00:39:04;;;;;;;10.25;9.13;;;;;;;;;;5011809;28;20439;-76
2022/05/01 00:41:32;;;;;;;10.43;8.68;;;;;;;;;;5011887;28;20216;-75
2022/05/01 00:44:03;;;;;;;9.30;8.27;;;;;;;;;;5011197;28;20677;-76
2022/05/01 00:46:31;;;;;;;12.35;10.35;;;;;;;;;;5012941;28;20563;-75
2022/05/01 00:48:59;;;;;;;9.50;8.52;;;;;;;;;;5016532;28;20550;-76
2022/05/01 00:51:26;;;;;;;15.45;10.70;;;;;;;;;;5033697;28;20251;-76
2022/05/01 00:53:54;;;;;;;11.80;10.05;;;;;;;;;;5036716;28;20567;-76
2022/05/01 00:56:24;;;;;;;11.70;9.55;;;;;;;;;;5037928;28;20195;-76
2022/05/01 00:58:52;;;;;;;11.43;9.25;;;;;;;;;;5049603;28;20202;-76
2022/05/01 01:01:20;;;;;;;10.20;9.10;;;;;;;;;;5050769;28;20229;-77
2022/05/01 01:03:47;;;;;;;10.17;9.17;;;;;;;;;;5033473;28;20506;-77
2022/05/01 01:06:14;;;;;;;10.05;8.85;;;;;;;;;;5051880;28;20875;-76
2022/05/01 01:08:42;;;;;;;9.10;8.20;;;;;;;;;;5049559;28;20198;-76
2022/05/01 01:11:09;;;;;;;10.65;7.95;;;;;;;;;;5033273;28;20573;-76
2022/05/01 01:13:37;;;;;;;10.00;9.00;;;;;;;;;;5033391;28;20202;-76
2022/05/01 01:16:09;;;;;;;11.50;9.00;;;;;;;;;;5036005;28;20187;-75
2022/05/01 01:18:38;;;;;;;10.55;9.35;;;;;;;;;;5037460;28;20644;-76
2022/05/01 01:21:06;;;;;;;10.73;8.68;;;;;;;;;;5031876;28;20218;-76
2022/05/01 01:23:34;;;;;;;9.13;8.23;;;;;;;;;;5030882;28;20199;-76
2022/05/01 01:26:01;;;;;;;11.02;9.80;;;;;;;;;;5031168;28;20203;-76
2022/05/01 01:28:29;;;;;;;13.32;9.82;;;;;;;;;;5031465;28;20755;-76
2022/05/01 01:33:37;;;;;;;10.32;9.23;;;;;;;;;;5032922;28;20525;-77
2022/05/01 01:36:05;;;;;;;9.90;8.90;;;;;;;;;;5033278;28;20616;-76
2022/05/01 01:38:33;;;;;;;11.63;9.88;;;;;;;;;;5018682;28;20521;-75
2022/05/01 01:41:04;;;;;;;10.45;9.27;;;;;;;;;;5039142;28;20215;-76
2022/05/01 01:43:33;;;;;;;10.60;9.15;;;;;;;;;;5034770;28;20198;-76
2022/05/01 01:46:02;;;;;;;10.15;9.15;;;;;;;;;;5034687;28;20199;-76
2022/05/01 01:48:29;;;;;;;11.20;9.90;;;;;;;;;;5035023;28;20200;-76
2022/05/01 01:50:57;;;;;;;10.32;9.27;;;;;;;;;;5035283;28;20250;-76
2022/05/01 01:53:24;;;;;;;11.23;9.98;;;;;;;;;;5016848;28;20203;-75
2022/05/01 01:55:52;;;;;;;12.38;10.10;;;;;;;;;;5036753;28;20199;-75
2022/05/01 01:58:20;;;;;;;11.00;9.13;;;;;;;;;;5036866;28;20196;-76
2022/05/01 02:00:47;;;;;;;10.00;8.77;;;;;;;;;;5039583;28;20225;-76
2022/05/01 02:03:15;;;;;;;10.63;9.52;;;;;;;;;;5022671;28;20563;-75
2022/05/01 02:05:43;;;;;;;11.23;10.13;;;;;;;;;;5052262;28;20237;-74
2022/05/01 02:08:11;;;;;;;11.90;9.05;;;;;;;;;;5053812;28;20229;-76
2022/05/01 02:10:39;;;;;;;12.60;10.18;;;;;;;;;;5054330;28;20246;-76
2022/05/01 02:13:07;;;;;;;13.00;9.82;;;;;;;;;;5054843;28;20195;-76
2022/05/01 02:15:36;;;;;;;11.07;8.77;;;;;;;;;;5035317;28;20206;-76
2022/05/01 02:18:03;;;;;;;11.77;9.40;;;;;;;;;;5019016;28;20199;-76
2022/05/01 02:21:33;;;;;;;13.45;11.13;;;;;;;;;;5018674;28;20261;-76
2022/05/01 02:23:20;;;;;;;16.13;11.30;;;;;;;;;;5024833;28;20194;-76
2022/05/01 02:25:47;;;;;;;12.77;10.25;;;;;;;;;;5023006;28;20229;-76
2022/05/01 02:28:16;;;;;;;14.18;10.75;;;;;;;;;;5013787;28;20243;-76
2022/05/01 02:30:43;;;;;;;12.13;10.68;;;;;;;;;;4996748;28;20216;-76
2022/05/01 02:33:10;;;;;;;13.80;11.50;;;;;;;;;;5013996;28;20242;-76
2022/05/01 02:35:37;;;;;;;11.48;10.32;;;;;;;;;;4997470;28;20196;-76
2022/05/01 02:38:06;;;;;;;11.55;9.32;;;;;;;;;;5017531;28;20206;-76
2022/05/01 02:40:33;;;;;;;11.65;10.45;;;;;;;;;;5036172;28;20242;-75
2022/05/01 02:43:01;;;;;;;11.88;10.73;;;;;;;;;;5018671;28;20217;-76
2022/05/01 02:45:30;;;;;;;14.45;10.25;;;;;;;;;;5039207;28;20219;-77
2022/05/01 02:47:57;;;;;;;13.30;10.70;;;;;;;;;;5022689;28;20191;-76
2022/05/01 02:50:25;;;;;;;11.65;10.50;;;;;;;;;;5053002;28;20213;-75
2022/05/01 02:52:52;;;;;;;11.18;10.05;;;;;;;;;;5052028;28;20199;-76
2022/05/01 02:55:19;;;;;;;14.95;11.95;;;;;;;;;;5053614;28;20564;-76
2022/05/01 02:57:46;;;;;;;11.48;10.27;;;;;;;;;;5053965;28;20235;-75
2022/05/01 03:00:16;;;;;;;12.43;11.23;;;;;;;;;;5049433;28;20195;-76
2022/05/01 03:02:45;;;;;;;12.10;10.02;;;;;;;;;;5035720;28;20197;-77
2022/05/01 03:05:12;;;;;;;10.95;9.75;;;;;;;;;;5035626;28;20219;-76
2022/05/01 03:07:39;;;;;;;10.75;9.57;;;;;;;;;;5039195;28;20544;-76
2022/05/01 03:10:08;;;;;;;11.90;10.70;;;;;;;;;;5039232;28;20183;-76
2022/05/01 03:12:37;;;;;;;11.05;9.52;;;;;;;;;;5052572;28;20201;-76
2022/05/01 03:15:04;;;;;;;12.10;10.82;;;;;;;;;;5053099;28;20199;-76
2022/05/01 03:22:10;;;;;;;13.85;11.52;;;;;;;;;;5053345;28;20194;-76
2022/05/01 03:23:01;;;;;;;13.68;11.07;;;;;;;;;;5043746;28;20199;-76
2022/05/01 03:25:29;;;;;;;13.57;9.85;;;;;;;;;;5035318;28;20219;-76
2022/05/01 03:27:56;;;;;;;11.85;10.48;;;;;;;;;;5035654;28;20199;-76
2022/05/01 03:30:24;;;;;;;11.45;10.35;;;;;;;;;;5038828;28;20636;-77
2022/05/01 03:32:51;;;;;;;12.85;10.68;;;;;;;;;;5020176;28;21078;-76
2022/05/01 03:35:19;;;;;;;12.05;10.75;;;;;;;;;;5032312;28;20202;-76
2022/05/01 03:37:47;;;;;;;13.60;10.93;;;;;;;;;;5032420;28;20192;-76
2022/05/01 03:40:15;;;;;;;13.50;11.00;;;;;;;;;;5033107;28;20204;-76
2022/05/01 03:42:42;;;;;;;11.65;10.30;;;;;;;;;;5033360;28;20268;-76
2022/05/01 03:45:10;;;;;;;13.75;11.02;;;;;;;;;;5032963;28;20215;-76
2022/05/01 03:47:37;;;;;;;12.40;10.70;;;;;;;;;;5034789;28;20200;-75
2022/05/01 03:50:05;;;;;;;15.90;12.45;;;;;;;;;;5034688;28;20211;-77
2022/05/01 03:52:33;;;;;;;17.80;12.73;;;;;;;;;;5038123;28;20215;-75
2022/05/01 03:55:01;;;;;;;16.38;11.52;;;;;;;;;;5040514;28;20225;-77
2022/05/01 03:57:28;;;;;;;14.30;12.57;;;;;;;;;;5051486;28;20672;-75
2022/05/01 03:59:56;;;;;;;15.85;11.18;;;;;;;;;;5052066;28;20194;-76
2022/05/01 04:02:23;;;;;;;13.30;11.85;;;;;;;;;;5051991;28;20211;-76
2022/05/01 04:04:50;;;;;;;13.18;11.60;;;;;;;;;;5052485;28;20229;-77
2022/05/01 04:07:18;;;;;;;13.35;11.23;;;;;;;;;;5046543;28;20217;-76
2022/05/01 04:09:45;;;;;;;14.65;11.48;;;;;;;;;;5035018;28;20621;-76
2022/05/01 04:12:15;;;;;;;17.52;13.05;;;;;;;;;;5034455;28;20215;-76
2022/05/01 04:14:42;;;;;;;15.82;12.05;;;;;;;;;;5038125;28;20632;-77
2022/05/01 04:17:09;;;;;;;14.77;12.15;;;;;;;;;;5037994;28;20196;-76
2022/05/01 04:19:36;;;;;;;17.73;12.45;;;;;;;;;;5031290;28;20195;-77
2022/05/01 04:22:04;;;;;;;16.95;13.32;;;;;;;;;;5031790;28;20215;-75
2022/05/01 04:24:31;;;;;;;13.98;12.30;;;;;;;;;;5031935;28;20199;-76
2022/05/01 04:26:58;;;;;;;15.07;12.85;;;;;;;;;;5032411;28;20199;-76
2022/05/01 04:32:08;;;;;;;16.15;13.10;;;;;;;;;;5018244;28;20288;-76
2022/05/01 04:34:36;;;;;;;16.20;13.57;;;;;;;;;;5034225;28;20207;-76
2022/05/01 04:37:04;;;;;;;15.05;12.57;;;;;;;;;;5037572;28;20671;-76
2022/05/01 04:39:31;;;;;;;12.60;11.30;;;;;;;;;;5039633;28;20201;-77
2022/05/01 04:41:58;;;;;;;14.38;12.93;;;;;;;;;;5050790;28;20246;-76
2022/05/01 04:44:27;;;;;;;14.82;12.48;;;;;;;;;;5050954;28;20201;-76
2022/05/01 04:46:55;;;;;;;14.55;11.60;;;;;;;;;;5051798;28;20206;-76
2022/05/01 04:49:22;;;;;;;16.45;13.15;;;;;;;;;;5052094;28;20194;-76
2022/05/01 04:51:49;;;;;;;17.52;13.07;;;;;;;;;;5045555;28;20227;-76
2022/05/01 04:54:17;;;;;;;14.07;12.25;;;;;;;;;;5033688;28;20210;-76
2022/05/01 04:59:26;;;;;;;13.65;11.82;;;;;;;;;;5036199;28;20664;-77
2022/05/01 05:01:54;;;;;;;13.57;11.75;;;;;;;;;;5040126;28;20210;-76
2022/05/01 05:04:21;;;;;;;16.63;13.10;;;;;;;;;;5050561;28;20279;-76
2022/05/01 05:06:52;;;;;;;13.48;12.07;;;;;;;;;;5050922;28;20343;-76
2022/05/01 05:12:03;;;;;;;14.00;12.60;;;;;;;;;;5050516;28;20297;-76
2022/05/01 05:14:32;;;;;;;12.95;11.55;;;;;;;;;;5042244;28;20241;-76
2022/05/01 05:17:00;;;;;;;13.88;12.35;;;;;;;;;;5037580;28;20557;-75
2022/05/01 05:19:27;;;;;;;14.00;11.85;;;;;;;;;;5038264;28;20187;-76
2022/05/01 05:21:55;;;;;;;12.73;11.35;;;;;;;;;;5041104;28;20215;-77
2022/05/01 05:24:22;;;;;;;12.43;11.05;;;;;;;;;;5039408;28;20191;-77
2022/05/01 05:26:49;;;;;;;14.30;11.30;;;;;;;;;;5017716;28;20223;-77
2022/05/01 05:29:17;;;;;;;12.37;11.07;;;;;;;;;;5035220;28;20438;-76
2022/05/01 05:31:45;;;;;;;10.27;9.13;;;;;;;;;;5034963;28;20469;-76
2022/05/01 05:34:12;;;;;;;12.70;11.17;;;;;;;;;;5035470;28;20441;-76
2022/05/01 05:36:39;;;;;;;14.45;11.50;;;;;;;;;;5035637;28;20458;-77
2022/05/01 05:39:07;;;;;;;11.50;10.30;;;;;;;;;;5037402;28;20528;-76
2022/05/01 05:41:34;;;;;;;11.83;10.27;;;;;;;;;;5037440;28;20988;-76
2022/05/01 05:44:01;;;;;;;12.20;10.93;;;;;;;;;;5040551;28;20452;-76
2022/05/01 05:46:28;;;;;;;11.80;10.60;;;;;;;;;;5039785;28;20481;-77
2022/05/01 05:48:57;;;;;;;14.37;10.10;;;;;;;;;;5034202;28;20450;-77
2022/05/01 05:51:24;;;;;;;11.90;10.60;;;;;;;;;;5034515;28;20565;-77
2022/05/01 05:53:51;;;;;;;13.70;10.67;;;;;;;;;;5034793;28;20931;-76
2022/05/01 05:56:19;;;;;;;12.90;10.37;;;;;;;;;;5035134;28;20446;-78
2022/05/01 05:58:46;;;;;;;13.17;11.43;;;;;;;;;;5035032;28;20461;-77
2022/05/01 06:01:13;;;;;;;12.23;11.03;;;;;;;;;;5036816;28;20462;-77
2022/05/01 06:03:40;;;;;;;11.63;10.40;;;;;;;;;;5036688;28;20442;-77
2022/05/01 06:06:09;;;;;;;9.77;8.70;;;;;;;;;;5040766;28;20948;-76
2022/05/01 06:08:38;;;;;;;11.27;10.07;;;;;;;;;;5022662;28;20787;-78
2022/05/01 06:11:05;;;;;;;11.60;10.10;;;;;;;;;;5033558;28;20986;-77
2022/05/01 06:13:32;;;;;;;10.70;9.60;;;;;;;;;;5034155;28;20468;-77
2022/05/01 06:15:59;;;;;;;14.77;11.60;;;;;;;;;;5030728;28;20458;-79
2022/05/01 06:18:27;;;;;;;11.60;10.10;;;;;;;;;;5030321;28;20441;-77
2022/05/01 06:20:54;;;;;;;11.73;10.50;;;;;;;;;;5034501;28;20465;-78
2022/05/01 06:23:23;;;;;;;14.03;12.33;;;;;;;;;;5036428;28;20476;-78
2022/05/01 06:25:50;;;;;;;16.13;12.13;;;;;;;;;;5018583;28;20473;-76
2022/05/01 06:28:18;;;;;;;14.57;11.17;;;;;;;;;;5039762;28;20464;-75
2022/05/01 06:30:48;;;;;;;13.00;11.70;;;;;;;;;;5021940;28;20453;-76
2022/05/01 06:33:17;;;;;;;22.20;12.23;;;;;;;;;;5033433;28;20853;-78
2022/05/01 06:35:44;;;;;;;14.30;12.00;;;;;;;;;;5029034;28;20455;-77
2022/05/01 06:38:12;;;;;;;12.90;11.60;;;;;;;;;;5020103;28;20443;-77
2022/05/01 06:40:42;;;;;;;12.33;11.13;;;;;;;;;;5018686;28;20478;-75
2022/05/01 06:43:09;;;;;;;11.93;10.30;;;;;;;;;;5027709;28;20509;-79
2022/05/01 06:45:36;;;;;;;12.43;11.23;;;;;;;;;;5039121;28;20493;-77
2022/05/01 06:48:04;;;;;;;13.10;11.83;;;;;;;;;;5037374;28;20436;-77
2022/05/01 06:50:31;;;;;;;11.67;10.50;;;;;;;;;;5033208;28;20464;-77
2022/05/01 06:52:58;;;;;;;12.77;11.53;;;;;;;;;;5031580;28;20516;-77
2022/05/01 06:55:26;;;;;;;10.53;9.53;;;;;;;;;;5033486;28;20957;-76
2022/05/01 06:57:55;;;;;;;12.73;11.43;;;;;;;;;;5034174;28;20488;-76
2022/05/01 07:00:22;;;;;;;12.57;11.47;;;;;;;;;;5016505;28;20453;-78
2022/05/01 07:02:50;;;;;;;11.80;10.77;;;;;;;;;;5034103;28;20931;-76
2022/05/01 07:05:18;;;;;;;11.13;10.10;;;;;;;;;;5035639;28;20792;-76
2022/05/01 07:07:46;;;;;;;10.17;9.23;;;;;;;;;;5038023;28;20453;-77
2022/05/01 07:10:13;;;;;;;9.73;8.67;;;;;;;;;;5021629;28;20434;-77
2022/05/01 07:12:40;;;;;;;10.40;9.30;;;;;;;;;;5046190;28;20930;-77
2022/05/01 07:15:09;;;;;;;11.87;10.67;;;;;;;;;;5032194;28;20469;-76
2022/05/01 07:17:36;;;;;;;12.50;10.03;;;;;;;;;;5033332;28;20780;-77
2022/05/01 07:20:04;;;;;;;10.43;9.33;;;;;;;;;;5033569;28;20442;-76
2022/05/01 07:22:31;;;;;;;10.57;9.67;;;;;;;;;;5033027;28;20822;-77
2022/05/01 07:24:58;;;;;;;10.30;9.20;;;;;;;;;;5032518;28;20461;-77
2022/05/01 07:27:25;;;;;;;11.90;10.70;;;;;;;;;;5035039;28;20486;-77
2022/05/01 07:29:53;;;;;;;10.33;9.43;;;;;;;;;;5036503;28;20437;-77
2022/05/01 07:32:21;;;;;;;11.40;10.17;;;;;;;;;;5037002;28;20490;-77
2022/05/01 07:34:48;;;;;;;11.67;10.47;;;;;;;;;;5045841;28;20445;-77
2022/05/01 07:37:16;;;;;;;14.30;10.30;;;;;;;;;;5052892;28;20457;-78
2022/05/01 07:39:44;;;;;;;12.83;10.03;;;;;;;;;;5053987;28;20445;-76
2022/05/01 07:42:11;;;;;;;10.30;9.03;;;;;;;;;;5038594;28;20489;-76
2022/05/01 07:44:38;;;;;;;13.10;10.80;;;;;;;;;;5033711;28;20454;-77
2022/05/01 07:47:05;;;;;;;10.80;9.70;;;;;;;;;;5033672;28;20485;-75
2022/05/01 07:49:34;;;;;;;11.13;10.13;;;;;;;;;;5034694;28;20446;-76
2022/05/01 07:52:01;;;;;;;11.00;9.87;;;;;;;;;;5033005;28;20828;-76
2022/05/01 07:54:28;;;;;;;10.20;9.20;;;;;;;;;;5038270;28;20433;-77
2022/05/01 07:56:55;;;;;;;9.73;8.77;;;;;;;;;;5041463;28;20789;-76
2022/05/01 07:59:23;;;;;;;8.50;7.70;;;;;;;;;;5042456;28;20484;-77
2022/05/01 08:01:50;;;;;;;12.07;9.57;;;;;;;;;;5021136;28;20466;-74
2022/05/01 08:07:00;;;;;;;8.93;8.00;;;;;;;;;;4997347;28;20506;-76
2022/05/01 08:09:28;;;;;;;13.03;10.17;;;;;;;;;;5022732;28;20825;-75
2022/05/01 08:11:56;;;;;;;11.80;9.60;;;;;;;;;;5016923;28;20983;-77
2022/05/01 08:14:23;;;;;;;10.93;9.83;;;;;;;;;;5014859;28;20446;-76
2022/05/01 08:16:50;;;;;;;12.67;9.97;;;;;;;;;;5035576;28;20948;-77
2022/05/01 08:22:00;;;;;;;11.10;10.10;;;;;;;;;;5032520;28;20640;-76
2022/05/01 08:24:27;;;;;;;10.40;8.80;;;;;;;;;;5031415;28;20442;-76
2022/05/01 08:26:54;;;;;;;9.53;8.60;;;;;;;;;;5032008;28;20482;-75
2022/05/01 08:29:21;;;;;;;9.73;8.83;;;;;;;;;;5043704;28;20463;-75
2022/05/01 08:31:49;;;;;;;11.07;9.97;;;;;;;;;;5031627;28;20492;-74
2022/05/01 08:34:16;;;;;;;10.23;9.17;;;;;;;;;;5037510;28;20434;-76
2022/05/01 08:36:45;;;;;;;9.77;8.77;;;;;;;;;;5036151;28;20938;-74
2022/05/01 08:39:14;;;;;;;10.60;8.80;;;;;;;;;;5011245;28;20418;-77
2022/05/01 08:41:41;;;;;;;11.07;9.93;;;;;;;;;;5029788;28;20834;-74
2022/05/01 08:44:11;;;;;;;10.47;9.47;;;;;;;;;;5031428;28;20815;-75
2022/05/01 08:46:42;;;;;;;9.03;8.07;;;;;;;;;;5030778;28;20990;-74
2022/05/01 08:49:10;;;;;;;10.90;8.30;;;;;;;;;;5012146;28;20473;-75
2022/05/01 08:51:38;;;;;;;10.23;9.27;;;;;;;;;;5032262;28;20483;-74
2022/05/01 08:54:06;;;;;;;9.67;8.63;;;;;;;;;;5037154;28;20916;-75
2022/05/01 08:56:35;;;;;;;8.20;7.40;;;;;;;;;;5014298;28;20947;-73
2022/05/01 08:59:04;;;;;;;8.90;8.07;;;;;;;;;;5013476;28;20811;-74
2022/05/01 09:01:33;;;;;;;9.23;8.20;;;;;;;;;;5031292;28;20462;-75
2022/05/01 09:04:00;;;;;;;7.47;6.73;;;;;;;;;;5013802;28;20996;-75
2022/05/01 09:06:27;;;;;;;8.10;7.33;;;;;;;;;;5012717;28;20444;-77
2022/05/01 09:08:54;;;;;;;9.50;8.60;;;;;;;;;;5033589;28;20931;-75
2022/05/01 09:14:04;;;;;;;8.43;7.63;;;;;;;;;;5035277;28;20430;-76
2022/05/01 09:16:32;;;;;;;7.10;6.40;;;;;;;;;;5019415;28;20802;-75
2022/05/01 09:18:59;;;;;;;8.67;7.87;;;;;;;;;;5014489;28;20434;-75
2022/05/01 09:21:26;;;;;;;8.73;7.93;;;;;;;;;;5030881;28;20469;-76
2022/05/01 09:23:53;;;;;;;12.37;8.00;;;;;;;;;;5031443;28;20497;-75
2022/05/01 09:26:22;;;;;;;7.20;6.50;;;;;;;;;;5030847;28;20478;-76
2022/05/01 09:28:49;;;;;;;6.67;6.07;;;;;;;;;;5014349;28;20449;-74
2022/05/01 09:31:18;;;;;;;9.20;8.30;;;;;;;;;;5028776;28;20482;-75
2022/05/01 09:33:46;;;;;;;7.73;7.00;;;;;;;;;;5033469;28;20446;-71
2022/05/01 09:36:35;;;;;;;9.83;8.57;;;;;;;;;;5033698;28;20446;-74
2022/05/01 09:39:04;;;;;;;10.67;6.77;;;;;;;;;;5037451;28;20433;-74
2022/05/01 09:41:31;;;;;;;8.07;7.27;;;;;;;;;;5045993;28;20457;-75
2022/05/01 09:44:00;;;;;;;7.90;7.20;;;;;;;;;;5051147;28;20438;-75
2022/05/01 09:46:29;;;;;;;8.63;7.63;;;;;;;;;;5037374;28;20505;-75
2022/05/01 09:49:00;;;;;;;8.43;6.43;;;;;;;;;;5024832;28;20473;-75
2022/05/01 09:51:28;;;;;;;8.80;6.33;;;;;;;;;;5010327;28;20482;-74
2022/05/01 09:53:56;;;;;;;8.67;7.57;;;;;;;;;;5017736;28;20989;-76
2022/05/01 09:56:23;;;;;;;10.63;9.47;;;;;;;;;;5036790;28;20441;-75
2022/05/01 09:58:58;;;;;;;9.43;8.47;;;;;;;;;;5031015;28;20453;-75
2022/05/01 10:01:25;;;;;;;10.03;8.17;;;;;;;;;;5029909;28;20804;-75
2022/05/01 10:03:54;;;;;;;11.20;10.03;;;;;;;;;;5034566;28;20684;-80
2022/05/01 10:06:23;;;;;;;8.63;7.90;;;;;;;;;;5035635;28;20446;-77
2022/05/01 10:08:50;;;;;;;9.80;8.80;;;;;;;;;;5034627;28;20500;-76
2022/05/01 10:11:17;;;;;;;9.17;8.27;;;;;;;;;;5035351;28;20834;-77
2022/05/01 10:13:45;;;;;;;11.40;10.30;;;;;;;;;;5036405;28;20927;-74
2022/05/01 10:16:15;;;;;;;10.10;8.00;;;;;;;;;;5017678;28;20454;-75
2022/05/01 10:18:44;;;;;;;7.13;6.07;;;;;;;;;;5040072;28;20857;-76
2022/05/01 10:21:13;;;;;;;8.07;6.80;;;;;;;;;;5048383;28;20832;-75
2022/05/01 10:23:41;;;;;;;8.10;7.30;;;;;;;;;;5054132;28;20452;-75
2022/05/01 10:26:10;;;;;;;8.13;6.30;;;;;;;;;;5040422;28;20454;-75
2022/05/01 10:28:45;;;;;;;8.53;7.63;;;;;;;;;;5034695;28;20439;-77
2022/05/01 10:34:05;;;;;;;9.43;8.50;;;;;;;;;;5034852;28;20438;-73
2022/05/01 10:36:40;;;;;;;8.73;7.30;;;;;;;;;;5034689;28;20461;-74
2022/05/01 10:39:10;;;;;;;11.70;9.20;;;;;;;;;;5032177;28;20441;-76
2022/05/01 10:41:41;;;;;;;10.00;9.00;;;;;;;;;;5039605;28;20455;-74
2022/05/01 10:44:08;;;;;;;8.70;7.80;;;;;;;;;;5018201;28;20948;-75
2022/05/01 10:46:35;;;;;;;9.63;8.83;;;;;;;;;;5033963;28;20504;-73
2022/05/01 10:49:05;;;;;;;9.63;8.13;;;;;;;;;;5031043;28;20450;-75
2022/05/01 10:51:49;;;;;;;11.97;10.00;;;;;;;;;;5012825;28;20482;-75
2022/05/01 10:54:31;;;;;;;10.27;9.07;;;;;;;;;;5020848;28;20466;-75
2022/05/01 10:57:08;;;;;;;9.97;8.10;;;;;;;;;;5016008;28;20438;-76
2022/05/01 10:59:36;;;;;;;8.83;8.00;;;;;;;;;;5017253;28;20538;-75
2022/05/01 11:02:05;;;;;;;10.07;8.77;;;;;;;;;;5026546;28;20476;-74
2022/05/01 11:04:40;;;;;;;10.13;9.13;;;;;;;;;;5035355;28;20433;-75
2022/05/01 11:07:10;;;;;;;10.40;9.30;;;;;;;;;;5034350;28;20829;-75
2022/05/01 11:09:38;;;;;;;10.57;9.47;;;;;;;;;;5015264;28;20785;-77
2022/05/01 11:12:08;;;;;;;12.50;11.20;;;;;;;;;;5032729;28;20472;-76
2022/05/01 11:14:37;;;;;;;11.83;8.43;;;;;;;;;;5030859;28;20440;-77
2022/05/01 11:17:04;;;;;;;8.20;7.40;;;;;;;;;;5015652;28;20439;-80
2022/05/01 11:19:32;;;;;;;11.37;10.27;;;;;;;;;;5035053;28;20974;-79
2022/05/01 11:21:59;;;;;;;10.10;9.03;;;;;;;;;;5021198;28;20463;-80
2022/05/01 11:24:41;;;;;;;11.77;9.97;;;;;;;;;;5036559;28;20415;-75
2022/05/01 11:27:17;;;;;;;7.87;7.17;;;;;;;;;;5017625;28;20491;-77
2022/05/01 11:29:59;;;;;;;8.53;7.70;;;;;;;;;;5032776;28;20528;-75
2022/05/01 11:32:27;;;;;;;10.37;9.33;;;;;;;;;;5032009;28;20483;-76
2022/05/01 11:34:55;;;;;;;10.50;8.40;;;;;;;;;;5033028;28;20441;-76
2022/05/01 11:37:23;;;;;;;11.67;10.00;;;;;;;;;;5033710;28;20522;-77
2022/05/01 11:40:05;;;;;;;8.77;8.03;;;;;;;;;;5017539;28;20432;-76
2022/05/01 11:42:38;;;;;;;10.50;9.43;;;;;;;;;;5021367;28;20427;-76
2022/05/01 11:45:06;;;;;;;8.93;8.03;;;;;;;;;;5038556;28;20403;-76
2022/05/01 11:47:33;;;;;;;9.07;8.20;;;;;;;;;;5034974;28;20487;-74
2022/05/01 11:50:01;;;;;;;8.73;7.67;;;;;;;;;;5032805;28;20449;-77
2022/05/01 11:52:28;;;;;;;8.27;6.17;;;;;;;;;;5032372;28;20429;-76
2022/05/01 11:54:56;;;;;;;7.90;7.17;;;;;;;;;;5032566;28;20441;-76
2022/05/01 12:02:48;;;;;;;10.27;9.03;;;;;;;;;;5033567;28;20484;-75
2022/05/01 12:05:16;;;;;;;7.33;6.50;;;;;;;;;;5036133;28;20446;-76
2022/05/01 12:07:43;;;;;;;9.33;8.40;;;;;;;;;;5038374;28;21096;-76
2022/05/01 12:10:13;;;;;;;6.57;5.90;;;;;;;;;;5044737;28;20416;-76
2022/05/01 12:12:40;;;;;;;7.50;6.67;;;;;;;;;;5052404;28;20407;-75
2022/05/01 12:15:11;;;;;;;7.43;6.00;;;;;;;;;;5052188;28;20445;-77
2022/05/01 12:17:40;;;;;;;7.87;7.07;;;;;;;;;;5052153;28;20988;-75
2022/05/01 12:20:08;;;;;;;10.37;8.20;;;;;;;;;;5034774;28;20443;-76
2022/05/01 12:22:38;;;;;;;7.30;6.47;;;;;;;;;;5038294;28;20454;-74
2022/05/01 12:25:07;;;;;;;8.97;7.93;;;;;;;;;;5034073;28;20516;-76
2022/05/01 12:27:35;;;;;;;9.23;8.17;;;;;;;;;;5035415;28;20801;-76
2022/05/01 12:30:03;;;;;;;8.90;8.10;;;;;;;;;;5037894;28;20444;-76
2022/05/01 12:32:32;;;;;;;9.30;7.23;;;;;;;;;;5017663;28;20469;-76
2022/05/01 12:35:00;;;;;;;9.43;8.43;;;;;;;;;;5031863;28;20475;-76
2022/05/01 12:37:34;;;;;;;9.00;7.43;;;;;;;;;;5031771;28;20822;-77
2022/05/01 12:40:03;;;;;;;7.83;6.70;;;;;;;;;;5031950;28;20438;-77
2022/05/01 12:45:16;;;;;;;7.73;6.93;;;;;;;;;;5031683;28;20430;-75
2022/05/01 12:47:45;;;;;;;7.30;6.10;;;;;;;;;;5033366;28;20484;-77
2022/05/01 12:50:24;;;;;;;7.47;6.30;;;;;;;;;;5034780;28;20448;-77
2022/05/01 12:52:51;;;;;;;10.30;6.80;;;;;;;;;;5037251;28;20825;-75
2022/05/01 12:55:19;;;;;;;8.00;7.30;;;;;;;;;;5042992;28;20972;-76
2022/05/01 12:57:54;;;;;;;8.97;8.07;;;;;;;;;;5050796;28;20431;-75
2022/05/01 13:00:36;;;;;;;8.40;7.60;;;;;;;;;;5050928;28;20468;-75
2022/05/01 13:03:18;;;;;;;8.90;7.40;;;;;;;;;;5035827;28;20448;-75
2022/05/01 13:05:56;;;;;;;6.33;5.73;;;;;;;;;;5035709;28;20445;-76
2022/05/01 13:08:24;;;;;;;8.63;7.87;;;;;;;;;;5033572;28;20488;-77
2022/05/01 13:11:06;;;;;;;7.00;6.03;;;;;;;;;;5033488;28;20464;-78
2022/05/01 13:13:42;;;;;;;6.83;6.13;;;;;;;;;;5034621;28;20419;-77
2022/05/01 13:16:10;;;;;;;9.97;8.73;;;;;;;;;;5037248;28;20433;-77
2022/05/01 13:18:38;;;;;;;8.33;7.03;;;;;;;;;;5032657;28;20445;-75
2022/05/01 13:21:06;;;;;;;9.40;8.50;;;;;;;;;;5030941;28;20987;-76
2022/05/01 13:23:33;;;;;;;10.90;8.33;;;;;;;;;;5031218;28;20453;-76
2022/05/01 13:26:01;;;;;;;7.63;6.93;;;;;;;;;;5031640;28;20457;-77
2022/05/01 13:28:29;;;;;;;7.10;6.40;;;;;;;;;;5031335;28;20608;-78
2022/05/01 13:30:56;;;;;;;8.37;7.57;;;;;;;;;;5032258;28;20482;-74
2022/05/01 13:33:23;;;;;;;9.03;7.27;;;;;;;;;;5033229;28;20943;-76
2022/05/01 13:35:51;;;;;;;8.13;6.10;;;;;;;;;;5035926;28;20442;-76
2022/05/01 13:38:19;;;;;;;7.07;6.43;;;;;;;;;;5041354;28;20457;-76
2022/05/01 13:46:10;;;;;;;7.90;6.03;;;;;;;;;;5053988;28;20527;-79
2022/05/01 13:48:37;;;;;;;7.30;6.53;;;;;;;;;;5055622;28;20459;-77
2022/05/01 13:51:04;;;;;;;6.70;6.10;;;;;;;;;;5054325;28;20453;-79
2022/05/01 13:53:33;;;;;;;7.50;6.70;;;;;;;;;;5038579;28;20928;-77
2022/05/01 13:56:00;;;;;;;8.30;7.50;;;;;;;;;;5040696;28;20434;-79
2022/05/01 13:58:27;;;;;;;8.00;6.83;;;;;;;;;;5045052;28;20972;-75
2022/05/01 14:00:54;;;;;;;7.77;7.10;;;;;;;;;;5054613;28;20435;-76
2022/05/01 14:03:22;;;;;;;7.70;6.87;;;;;;;;;;5054557;28;20460;-77
2022/05/01 14:05:49;;;;;;;8.17;7.40;;;;;;;;;;5054486;28;20944;-77
2022/05/01 14:08:16;;;;;;;9.75;8.75;;;;;;;;;;5054424;28;20458;-74
2022/05/01 14:10:44;;;;;;;10.40;7.87;;;;;;;;;;5044424;28;20229;-74
2022/05/01 14:13:12;;;;;;;9.43;7.53;;;;;;;;;;5036454;28;20809;-73
2022/05/01 14:15:39;;;;;;;8.27;7.57;;;;;;;;;;5036600;28;20438;-74
2022/05/01 14:18:07;;;;;;;9.53;8.47;;;;;;;;;;5040115;28;20405;-73
2022/05/01 14:20:34;;;;;;;9.50;8.60;;;;;;;;;;5041274;28;20449;-81
2022/05/01 14:23:01;;;;;;;8.03;6.70;;;;;;;;;;5053930;28;20441;-79
2022/05/01 14:25:29;;;;;;;9.13;8.23;;;;;;;;;;5054078;28;20456;-79
2022/05/01 14:27:57;;;;;;;9.90;8.90;;;;;;;;;;5053962;28;20563;-76
2022/05/01 14:30:25;;;;;;;7.60;6.90;;;;;;;;;;5054763;28;20468;-77
2022/05/01 14:32:54;;;;;;;7.30;6.60;;;;;;;;;;5028243;28;20477;-76
2022/05/01 14:35:22;;;;;;;7.13;6.43;;;;;;;;;;5013013;28;20482;-76
2022/05/01 14:37:53;;;;;;;8.67;7.33;;;;;;;;;;5011689;28;20428;-74
2022/05/01 14:40:21;;;;;;;8.73;7.83;;;;;;;;;;5014961;28;20461;-76
2022/05/01 14:42:50;;;;;;;9.90;8.97;;;;;;;;;;5015030;28;20427;-75
2022/05/01 14:45:22;;;;;;;9.80;8.40;;;;;;;;;;5027051;28;20485;-75
2022/05/01 14:47:53;;;;;;;9.57;7.40;;;;;;;;;;5028848;28;20852;-76
2022/05/01 14:50:20;;;;;;;9.57;7.90;;;;;;;;;;5030714;28;20447;-76
2022/05/01 14:52:51;;;;;;;9.03;8.13;;;;;;;;;;5031025;28;20476;-74
2022/05/01 14:55:20;;;;;;;8.73;7.93;;;;;;;;;;5029220;28;20811;-76
2022/05/01 14:57:52;;;;;;;7.83;7.03;;;;;;;;;;5014891;28;20436;-74
2022/05/01 15:08:30;;;;;;;8.57;7.77;;;;;;;;;;5003544;28;20577;-74
2022/05/01 15:10:58;;;;;;;7.60;6.90;;;;;;;;;;5012744;28;20984;-77
2022/05/01 15:13:26;;;;;;;7.37;6.47;;;;;;;;;;5013621;28;20818;-76
2022/05/01 15:15:57;;;;;;;8.13;7.43;;;;;;;;;;5015394;28;20454;-75
2022/05/01 15:18:25;;;;;;;8.43;7.63;;;;;;;;;;5012456;28;20455;-75
2022/05/01 15:20:55;;;;;;;9.80;8.90;;;;;;;;;;5017523;28;20827;-74
2022/05/01 15:23:31;;;;;;;11.53;10.40;;;;;;;;;;5018122;28;20429;-75
2022/05/01 15:26:00;;;;;;;9.57;8.60;;;;;;;;;;5014642;28;20428;-74
2022/05/01 15:28:28;;;;;;;9.43;7.57;;;;;;;;;;5010879;28;20465;-74